Bush, Kentucky
Current Conditions -  °F | °C
As of 4:53 AM on Saturday 20 Dec 2014 (Local Time) from KLOZ Reporting Station
Overcast Overcast  
Wind Chill: 31°   Ceiling: 5000
Heat Index: 31°   Visibility: 10mi
Dew Point: 23°   Wind: 3mph
Humidity: 72%   Direction: 30°NNE
Pressure: 30.19"   Gusts: NA
Location:  37.09°N, 83.87°W
Report Text: KLOZ 200953Z AUTO 03003KT 10SM OVC050 M01/M05 A3019 RMK AO2 SLP232 T10061050
Loading
Personal Weather Stations






























Interactive Weather Map New forecast layout! Learn more

10-Day Weather Forecast

Advertisements
Track Severe Weather on mobile